Time;durP1;ratioP1;P1;durP2;ratioP2;P2;SDS_P1;SDS_P2;PMS_P1;PMS_P2;Temp;Humidity;BMP_temperature;BMP_pressure;BME280_temperature;BME280_humidity;BME280_pressure;Samples;Min_cycle;Max_cycle;Signal;HPM_P1;HPM_P2
2023/08/03 12:06:53;;;;;;;4.20;2.20;;;;;;;;;;104433;1304;561150;-41
2023/08/03 12:09:29;;;;;;;4.20;2.20;;;;;;;;;;107596;1280;41700;-41
2023/08/03 12:12:09;;;;;;;4.60;2.30;;;;;;;;;;107591;1272;41338;-40
2023/08/03 12:14:43;;;;;;;4.30;2.30;;;;;;;;;;107576;1281;38878;-40
2023/08/03 12:17:19;;;;;;;4.60;2.20;;;;;;;;;;107434;1275;41545;-40
2023/08/03 12:19:52;;;;;;;5.90;2.40;;;;;;;;;;107370;1267;138975;-41
2023/08/03 12:22:29;;;;;;;4.70;2.30;;;;;;;;;;108194;1272;40834;-42
2023/08/03 12:25:03;;;;;;;4.20;2.20;;;;;;;;;;108302;1270;39894;-40
2023/08/03 12:27:37;;;;;;;5.40;2.40;;;;;;;;;;108385;1260;41148;-41
2023/08/03 12:30:13;;;;;;;5.00;2.40;;;;;;;;;;108298;1269;175598;-42
2023/08/03 12:32:49;;;;;;;4.60;2.20;;;;;;;;;;108487;1263;39940;-42
2023/08/03 12:35:23;;;;;;;4.60;2.40;;;;;;;;;;108384;1270;38718;-42
2023/08/03 12:37:59;;;;;;;4.20;2.20;;;;;;;;;;108211;1261;45978;-42
2023/08/03 12:40:32;;;;;;;4.60;2.00;;;;;;;;;;108254;1261;40493;-41
2023/08/03 12:43:06;;;;;;;4.70;2.10;;;;;;;;;;108047;1260;176675;-40
2023/08/03 12:45:39;;;;;;;4.70;2.00;;;;;;;;;;108279;1268;38596;-39
2023/08/03 12:48:13;;;;;;;4.70;2.20;;;;;;;;;;108251;1256;46457;-39
2023/08/03 12:50:50;;;;;;;4.70;2.20;;;;;;;;;;108177;1269;175520;-40
2023/08/03 12:53:26;;;;;;;4.60;2.10;;;;;;;;;;108348;1259;39979;-41
2023/08/03 12:56:03;;;;;;;4.80;2.00;;;;;;;;;;108304;1263;38400;-42
2023/08/03 12:58:43;;;;;;;4.20;2.10;;;;;;;;;;108434;1258;39491;-42
2023/08/03 13:01:18;;;;;;;4.40;2.10;;;;;;;;;;108396;1266;40193;-42
2023/08/03 13:03:53;;;;;;;4.00;1.90;;;;;;;;;;108400;1259;39474;-42
2023/08/03 13:06:28;;;;;;;4.70;2.10;;;;;;;;;;108354;1256;39026;-42
2023/08/03 13:09:01;;;;;;;4.50;2.00;;;;;;;;;;108218;1261;40066;-42
2023/08/03 13:11:38;;;;;;;5.20;2.20;;;;;;;;;;108260;1260;40522;-42
2023/08/03 13:14:11;;;;;;;5.10;2.00;;;;;;;;;;108283;1266;39728;-42
2023/08/03 13:16:47;;;;;;;4.30;2.20;;;;;;;;;;108110;1254;38677;-42
2023/08/03 13:19:21;;;;;;;5.10;2.30;;;;;;;;;;108424;1266;41019;-42
2023/08/03 13:21:54;;;;;;;6.70;2.30;;;;;;;;;;108362;1267;40431;-42
2023/08/03 13:24:30;;;;;;;4.60;2.30;;;;;;;;;;108403;1268;40022;-41
2023/08/03 13:27:18;;;;;;;4.20;2.20;;;;;;;;;;108344;1268;38890;-41
2023/08/03 13:29:53;;;;;;;4.20;2.30;;;;;;;;;;108164;1270;42342;-42
2023/08/03 13:32:27;;;;;;;4.50;2.30;;;;;;;;;;108237;1271;40820;-42
2023/08/03 13:35:07;;;;;;;5.60;2.50;;;;;;;;;;108256;1272;39945;-42
2023/08/03 13:37:43;;;;;;;4.90;2.00;;;;;;;;;;108073;1256;38499;-42
2023/08/03 13:40:18;;;;;;;4.20;2.00;;;;;;;;;;108441;1266;40896;-42
2023/08/03 13:42:56;;;;;;;4.90;2.00;;;;;;;;;;108508;1268;40414;-42
2023/08/03 13:45:30;;;;;;;4.10;2.00;;;;;;;;;;108435;1270;39881;-44
2023/08/03 13:48:04;;;;;;;4.70;2.00;;;;;;;;;;108372;1258;39866;-43
2023/08/03 13:50:37;;;;;;;4.20;2.00;;;;;;;;;;108302;1270;39767;-43
2023/08/03 13:53:11;;;;;;;3.80;1.90;;;;;;;;;;108260;1270;41900;-43
2023/08/03 13:55:44;;;;;;;4.70;1.90;;;;;;;;;;108400;1267;41034;-43
2023/08/03 13:58:18;;;;;;;5.30;2.20;;;;;;;;;;108354;1258;38338;-43
2023/08/03 14:00:54;;;;;;;5.50;2.10;;;;;;;;;;108493;1265;40234;-43
2023/08/03 14:03:28;;;;;;;5.30;2.40;;;;;;;;;;108442;1264;40535;-42
2023/08/03 14:06:07;;;;;;;5.50;2.30;;;;;;;;;;108466;1257;39772;-42
2023/08/03 14:08:43;;;;;;;4.50;2.20;;;;;;;;;;108328;1256;38740;-42
2023/08/03 14:11:22;;;;;;;6.30;2.40;;;;;;;;;;108322;1270;40516;-42
2023/08/03 14:14:00;;;;;;;4.50;2.00;;;;;;;;;;108391;1270;40756;-41
2023/08/03 14:16:34;;;;;;;5.60;2.30;;;;;;;;;;108340;1268;39960;-42
2023/08/03 14:19:15;;;;;;;4.90;2.20;;;;;;;;;;108353;1257;38670;-40
2023/08/03 14:21:49;;;;;;;5.60;2.20;;;;;;;;;;108470;1266;39912;-43
2023/08/03 14:24:29;;;;;;;5.00;2.20;;;;;;;;;;108404;1267;40523;-44
2023/08/03 14:27:02;;;;;;;4.70;2.10;;;;;;;;;;108433;1269;40942;-42
2023/08/03 14:29:36;;;;;;;5.00;2.20;;;;;;;;;;108373;1255;39920;-42
2023/08/03 14:32:11;;;;;;;4.70;2.40;;;;;;;;;;108314;1267;42217;-50
2023/08/03 14:34:45;;;;;;;4.30;2.00;;;;;;;;;;108344;1270;40590;-42
2023/08/03 14:37:21;;;;;;;6.30;2.20;;;;;;;;;;108267;1256;40859;-41
2023/08/03 14:39:56;;;;;;;5.00;2.30;;;;;;;;;;108413;1257;38987;-38
2023/08/03 14:42:30;;;;;;;5.10;2.40;;;;;;;;;;108285;1270;40076;-41
2023/08/03 14:45:08;;;;;;;4.90;2.30;;;;;;;;;;108333;1262;40651;-38
2023/08/03 14:47:42;;;;;;;4.10;2.30;;;;;;;;;;108564;1264;40331;-39
2023/08/03 14:50:23;;;;;;;4.40;2.60;;;;;;;;;;108324;1258;38964;-39
2023/08/03 14:52:57;;;;;;;4.60;2.40;;;;;;;;;;108327;1271;39777;-40
2023/08/03 14:55:30;;;;;;;4.80;2.50;;;;;;;;;;108294;1260;40278;-39
2023/08/03 14:58:04;;;;;;;4.90;2.60;;;;;;;;;;108242;1267;39696;-38
2023/08/03 15:00:39;;;;;;;4.80;2.40;;;;;;;;;;108425;1257;38532;-37
2023/08/03 15:03:13;;;;;;;5.20;2.40;;;;;;;;;;108469;1269;39927;-43
2023/08/03 15:05:47;;;;;;;4.40;2.40;;;;;;;;;;108407;1269;41555;-43
2023/08/03 15:08:24;;;;;;;5.30;2.50;;;;;;;;;;108396;1263;41114;-42
2023/08/03 15:11:03;;;;;;;4.90;2.50;;;;;;;;;;108229;1258;38490;-41
2023/08/03 15:13:39;;;;;;;5.40;2.40;;;;;;;;;;108284;1268;40989;-41
2023/08/03 15:16:19;;;;;;;5.00;2.50;;;;;;;;;;108283;1262;42236;-41
2023/08/03 15:19:01;;;;;;;6.50;2.70;;;;;;;;;;108237;1255;39543;-42
2023/08/03 15:21:45;;;;;;;6.00;2.60;;;;;;;;;;108388;1257;44865;-41
2023/08/03 15:24:20;;;;;;;5.40;2.40;;;;;;;;;;108405;1268;39988;-41
2023/08/03 15:26:57;;;;;;;5.00;2.60;;;;;;;;;;108388;1269;40576;-41
2023/08/03 15:29:35;;;;;;;4.50;2.40;;;;;;;;;;108365;1255;39715;-41
2023/08/03 15:32:14;;;;;;;6.00;2.70;;;;;;;;;;108245;1268;40193;-41
2023/08/03 15:34:51;;;;;;;5.30;3.00;;;;;;;;;;108215;1268;41247;-41
2023/08/03 15:37:27;;;;;;;5.00;2.80;;;;;;;;;;108266;1265;40572;-41
2023/08/03 15:40:02;;;;;;;5.80;3.10;;;;;;;;;;108271;1254;40872;-41
2023/08/03 15:42:38;;;;;;;5.10;3.00;;;;;;;;;;108418;1268;38730;-41
2023/08/03 15:45:16;;;;;;;5.60;3.20;;;;;;;;;;108386;1267;42283;-41
2023/08/03 15:47:53;;;;;;;5.90;3.10;;;;;;;;;;108372;1269;40495;-41
2023/08/03 15:50:30;;;;;;;5.90;3.40;;;;;;;;;;108301;1255;39574;-41
2023/08/03 15:53:08;;;;;;;5.80;3.10;;;;;;;;;;108244;1270;38749;-41
2023/08/03 15:55:44;;;;;;;5.50;3.00;;;;;;;;;;108247;1258;40029;-41
2023/08/03 15:58:24;;;;;;;5.30;2.60;;;;;;;;;;108256;1270;40516;-41
2023/08/03 16:01:06;;;;;;;4.90;2.70;;;;;;;;;;108308;1258;39536;-41
2023/08/03 16:03:41;;;;;;;5.20;2.70;;;;;;;;;;108405;1264;39540;-41
2023/08/03 16:06:21;;;;;;;4.70;2.70;;;;;;;;;;108416;1269;41121;-40
2023/08/03 16:08:58;;;;;;;6.20;2.30;;;;;;;;;;108383;1268;40638;-41
2023/08/03 16:11:32;;;;;;;6.20;2.60;;;;;;;;;;108284;1257;40959;-39
2023/08/03 16:14:29;;;;;;;6.40;2.60;;;;;;;;;;108272;1270;38578;-39
2023/08/03 16:17:05;;;;;;;5.10;2.70;;;;;;;;;;108257;1268;40009;-39
2023/08/03 16:19:45;;;;;;;5.80;2.80;;;;;;;;;;108221;1270;40951;-39
2023/08/03 16:22:21;;;;;;;5.20;2.40;;;;;;;;;;108318;1254;39842;-39
2023/08/03 16:25:00;;;;;;;4.90;2.30;;;;;;;;;;108425;1269;38504;-39
2023/08/03 16:27:37;;;;;;;4.50;2.30;;;;;;;;;;108432;1254;41053;-39
2023/08/03 16:30:15;;;;;;;5.80;2.40;;;;;;;;;;108418;1267;40698;-40
2023/08/03 16:32:51;;;;;;;4.50;2.40;;;;;;;;;;108270;1260;39872;-41
2023/08/03 16:35:25;;;;;;;5.40;2.70;;;;;;;;;;108269;1270;38613;-40
2023/08/03 16:38:02;;;;;;;5.70;2.80;;;;;;;;;;108253;1260;41055;-40
2023/08/03 16:40:36;;;;;;;5.60;2.70;;;;;;;;;;108289;1269;40729;-40
2023/08/03 16:43:12;;;;;;;6.10;2.80;;;;;;;;;;108374;1260;46442;-40
2023/08/03 16:45:46;;;;;;;6.70;3.50;;;;;;;;;;108409;1269;38876;-40
2023/08/03 16:48:20;;;;;;;6.90;2.90;;;;;;;;;;108401;1254;41290;-41
2023/08/03 16:51:13;;;;;;;5.40;3.10;;;;;;;;;;108375;1256;40724;-42
2023/08/03 16:53:49;;;;;;;5.00;2.90;;;;;;;;;;108331;1267;40059;-39
2023/08/03 16:56:23;;;;;;;5.00;2.80;;;;;;;;;;108319;1268;38958;-42
2023/08/03 16:58:59;;;;;;;5.40;2.80;;;;;;;;;;108284;1270;40155;-41
2023/08/03 17:01:33;;;;;;;5.50;2.70;;;;;;;;;;108241;1254;40652;-38
2023/08/03 17:04:11;;;;;;;6.30;3.10;;;;;;;;;;108429;1269;39842;-40
2023/08/03 17:06:47;;;;;;;5.80;2.80;;;;;;;;;;108428;1260;38512;-40
2023/08/03 17:09:23;;;;;;;5.40;3.30;;;;;;;;;;108409;1269;41177;-41
2023/08/03 17:11:59;;;;;;;6.30;3.40;;;;;;;;;;108457;1257;41484;-41
2023/08/03 17:14:33;;;;;;;5.70;3.20;;;;;;;;;;108327;1258;39821;-40
2023/08/03 17:17:08;;;;;;;5.70;3.20;;;;;;;;;;108328;1270;39832;-40
2023/08/03 17:19:41;;;;;;;5.70;2.80;;;;;;;;;;109267;1256;39722;-41
2023/08/03 17:22:17;;;;;;;5.80;2.60;;;;;;;;;;108395;1254;41828;-40
2023/08/03 17:24:52;;;;;;;4.70;2.70;;;;;;;;;;108540;1268;39771;-41
2023/08/03 17:27:26;;;;;;;4.30;2.40;;;;;;;;;;108574;1260;38420;-41
2023/08/03 17:30:00;;;;;;;5.10;2.60;;;;;;;;;;108531;1269;40223;-41
2023/08/03 17:32:33;;;;;;;4.70;2.50;;;;;;;;;;108453;1256;42032;-41
2023/08/03 17:35:09;;;;;;;4.50;2.10;;;;;;;;;;108261;1268;42244;-41
2023/08/03 17:37:42;;;;;;;5.30;2.30;;;;;;;;;;108351;1256;39943;-41
2023/08/03 17:40:16;;;;;;;4.20;2.10;;;;;;;;;;108352;1267;42494;-41
2023/08/03 17:42:52;;;;;;;5.00;2.30;;;;;;;;;;108385;1254;40746;-40
2023/08/03 17:45:26;;;;;;;4.00;2.00;;;;;;;;;;108540;1254;39602;-41
2023/08/03 17:47:59;;;;;;;5.10;2.30;;;;;;;;;;108534;1269;38777;-41
2023/08/03 17:50:32;;;;;;;4.70;2.10;;;;;;;;;;108555;1266;40914;-41
2023/08/03 17:53:08;;;;;;;4.50;2.00;;;;;;;;;;108459;1258;40716;-40
2023/08/03 17:55:42;;;;;;;4.10;1.90;;;;;;;;;;108351;1267;40999;-41
2023/08/03 17:58:16;;;;;;;4.70;1.90;;;;;;;;;;108373;1266;38764;-40
2023/08/03 18:00:49;;;;;;;4.30;1.90;;;;;;;;;;108400;1268;39811;-40
2023/08/03 18:03:23;;;;;;;4.40;1.90;;;;;;;;;;108401;1259;40856;-40
2023/08/03 18:05:56;;;;;;;3.90;1.90;;;;;;;;;;108517;1270;39832;-41
2023/08/03 18:08:30;;;;;;;5.00;1.90;;;;;;;;;;108593;1254;39127;-40
2023/08/03 18:11:04;;;;;;;4.30;1.90;;;;;;;;;;108557;1260;41074;-40
2023/08/03 18:13:38;;;;;;;4.20;1.90;;;;;;;;;;108455;1258;40700;-40
2023/08/03 18:16:13;;;;;;;5.10;2.00;;;;;;;;;;108353;1269;39659;-40
2023/08/03 18:18:52;;;;;;;4.10;1.90;;;;;;;;;;108350;1269;38575;-40
2023/08/03 18:21:26;;;;;;;4.30;2.00;;;;;;;;;;108332;1267;40225;-40
2023/08/03 18:24:00;;;;;;;4.70;2.10;;;;;;;;;;108421;1268;40851;-40
2023/08/03 18:26:33;;;;;;;4.60;2.00;;;;;;;;;;108594;1254;39605;-40
2023/08/03 18:29:07;;;;;;;4.90;2.20;;;;;;;;;;108534;1261;39790;-40
2023/08/03 18:31:40;;;;;;;6.70;2.00;;;;;;;;;;104024;1269;3011105;-40
2023/08/03 18:34:15;;;;;;;4.50;2.10;;;;;;;;;;108368;1258;23790;-40
2023/08/03 18:36:48;;;;;;;4.20;1.70;;;;;;;;;;108313;1270;39521;-40
2023/08/03 18:39:24;;;;;;;4.70;2.00;;;;;;;;;;108394;1268;38594;-40
2023/08/03 18:42:02;;;;;;;4.90;2.00;;;;;;;;;;108322;1260;39891;-40
2023/08/03 18:44:36;;;;;;;5.30;2.00;;;;;;;;;;108419;1260;40469;-41
2023/08/03 18:47:10;;;;;;;4.20;2.10;;;;;;;;;;108537;1270;39725;-41
2023/08/03 18:49:44;;;;;;;5.20;2.00;;;;;;;;;;108533;1268;38819;-38
2023/08/03 18:52:18;;;;;;;4.10;2.10;;;;;;;;;;108521;1268;40120;-40
2023/08/03 18:54:53;;;;;;;4.50;2.20;;;;;;;;;;108347;1260;41927;-40
2023/08/03 18:57:33;;;;;;;4.90;2.20;;;;;;;;;;108332;1258;40694;-40
2023/08/03 19:00:09;;;;;;;4.10;1.90;;;;;;;;;;108331;1268;39737;-40
2023/08/03 19:02:43;;;;;;;4.20;2.00;;;;;;;;;;108325;1256;39831;-40
2023/08/03 19:05:21;;;;;;;4.80;2.10;;;;;;;;;;108445;1259;41992;-40
2023/08/03 19:07:57;;;;;;;4.60;2.30;;;;;;;;;;108530;1269;39651;-40
2023/08/03 19:10:30;;;;;;;5.50;2.20;;;;;;;;;;108532;1269;39904;-41
2023/08/03 19:13:04;;;;;;;4.20;2.10;;;;;;;;;;108504;1254;40916;-40
2023/08/03 19:15:38;;;;;;;4.40;2.20;;;;;;;;;;108279;1257;42247;-40
2023/08/03 19:18:14;;;;;;;5.60;2.40;;;;;;;;;;108372;1271;40057;-40
2023/08/03 19:20:50;;;;;;;5.00;2.10;;;;;;;;;;108339;1271;38734;-40
2023/08/03 19:23:26;;;;;;;4.40;2.30;;;;;;;;;;108347;1268;40329;-41
2023/08/03 19:26:04;;;;;;;5.40;2.10;;;;;;;;;;108334;1258;40490;-41
2023/08/03 19:28:37;;;;;;;4.10;1.90;;;;;;;;;;108346;1259;39650;-41
2023/08/03 19:31:14;;;;;;;5.20;2.30;;;;;;;;;;108298;1268;38574;-41
2023/08/03 19:33:48;;;;;;;5.00;2.30;;;;;;;;;;108375;1255;39978;-41
2023/08/03 19:36:21;;;;;;;4.70;2.30;;;;;;;;;;108472;1260;40725;-41
2023/08/03 19:38:55;;;;;;;5.20;2.30;;;;;;;;;;108535;1255;40837;-41
2023/08/03 19:41:29;;;;;;;5.10;2.30;;;;;;;;;;108563;1269;38750;-41
2023/08/03 19:44:02;;;;;;;5.10;2.20;;;;;;;;;;108539;1266;40157;-41
2023/08/03 19:46:39;;;;;;;4.30;2.10;;;;;;;;;;108308;1269;40982;-41
2023/08/03 19:49:13;;;;;;;4.70;2.30;;;;;;;;;;108335;1268;40680;-41
2023/08/03 19:51:50;;;;;;;4.70;2.30;;;;;;;;;;108323;1262;38496;-41
2023/08/03 19:54:27;;;;;;;4.70;2.20;;;;;;;;;;108322;1258;39898;-41
2023/08/03 19:57:04;;;;;;;4.90;2.20;;;;;;;;;;108379;1259;48434;-41
2023/08/03 19:59:40;;;;;;;5.20;2.40;;;;;;;;;;108349;1270;40822;-41
2023/08/03 20:02:16;;;;;;;6.40;2.20;;;;;;;;;;108343;1260;38650;-40
2023/08/03 20:05:11;;;;;;;5.10;2.30;;;;;;;;;;108352;1264;39788;-41
2023/08/03 20:07:51;;;;;;;4.80;2.00;;;;;;;;;;108471;1266;41377;-41
2023/08/03 20:10:25;;;;;;;4.70;2.20;;;;;;;;;;108441;1253;39753;-40
2023/08/03 20:12:59;;;;;;;4.20;2.00;;;;;;;;;;108414;1269;38649;-39
2023/08/03 20:15:38;;;;;;;4.10;2.00;;;;;;;;;;108363;1256;40192;-41
2023/08/03 20:18:15;;;;;;;4.40;2.10;;;;;;;;;;108265;1261;40728;-41
2023/08/03 20:20:55;;;;;;;5.40;2.30;;;;;;;;;;108268;1256;39727;-41
2023/08/03 20:23:31;;;;;;;6.10;2.40;;;;;;;;;;108287;1261;40016;-40
2023/08/03 20:26:11;;;;;;;4.90;2.30;;;;;;;;;;108181;1257;39968;-40
2023/08/03 20:28:44;;;;;;;4.80;2.40;;;;;;;;;;108344;1269;175488;-39
2023/08/03 20:31:23;;;;;;;5.70;2.60;;;;;;;;;;108481;1264;39929;-42
2023/08/03 20:34:00;;;;;;;5.30;2.60;;;;;;;;;;108451;1260;38512;-40
2023/08/03 20:36:44;;;;;;;5.60;2.30;;;;;;;;;;108329;1269;40103;-40
2023/08/03 20:39:21;;;;;;;5.10;2.20;;;;;;;;;;108222;1260;40442;-40
2023/08/03 20:42:15;;;;;;;5.10;2.30;;;;;;;;;;108228;1270;40121;-39
2023/08/03 20:44:57;;;;;;;5.20;2.40;;;;;;;;;;108244;1258;38631;-40
2023/08/03 20:47:33;;;;;;;5.90;2.40;;;;;;;;;;108384;1254;40027;-41
2023/08/03 20:50:49;;;;;;;7.40;2.60;;;;;;;;;;103818;1298;893492;-40
2023/08/03 20:53:26;;;;;;;5.40;2.50;;;;;;;;;;107482;1271;40386;-41
2023/08/03 20:56:05;;;;;;;5.10;2.10;;;;;;;;;;107489;1282;39803;-36
2023/08/03 20:58:38;;;;;;;4.90;2.20;;;;;;;;;;107502;1283;38553;-37
2023/08/03 21:01:14;;;;;;;6.90;2.50;;;;;;;;;;107469;1272;40112;-36
2023/08/03 21:03:48;;;;;;;5.70;2.20;;;;;;;;;;107424;1281;126716;-39
2023/08/03 21:06:25;;;;;;;4.80;2.30;;;;;;;;;;107619;1267;40149;-38
2023/08/03 21:09:05;;;;;;;6.00;2.20;;;;;;;;;;107507;1276;39084;-38
2023/08/03 21:11:39;;;;;;;4.60;2.10;;;;;;;;;;107611;1267;40497;-37
2023/08/03 21:14:12;;;;;;;4.70;2.10;;;;;;;;;;107989;1272;41142;-37
2023/08/03 21:16:46;;;;;;;5.10;2.10;;;;;;;;;;108024;1264;40289;-37
2023/08/03 21:19:22;;;;;;;4.50;2.10;;;;;;;;;;108017;1263;38893;-37
2023/08/03 21:22:00;;;;;;;4.90;2.30;;;;;;;;;;108016;1263;40471;-37
2023/08/03 21:24:34;;;;;;;4.60;2.10;;;;;;;;;;108046;1275;42019;-37
2023/08/03 21:27:11;;;;;;;4.30;2.20;;;;;;;;;;108043;1264;42353;-36
2023/08/03 21:29:47;;;;;;;5.40;2.40;;;;;;;;;;108004;1273;40441;-36
2023/08/03 21:32:22;;;;;;;4.90;2.40;;;;;;;;;;108015;1263;40234;-36
2023/08/03 21:34:56;;;;;;;5.40;2.20;;;;;;;;;;108072;1266;40599;-36
2023/08/03 21:37:38;;;;;;;4.20;1.90;;;;;;;;;;108016;1259;39941;-37
2023/08/03 21:40:16;;;;;;;4.90;2.20;;;;;;;;;;107897;1260;175460;-38
2023/08/03 21:42:54;;;;;;;5.30;2.20;;;;;;;;;;107978;1263;46789;-39
2023/08/03 21:45:31;;;;;;;5.30;2.30;;;;;;;;;;108022;1271;41835;-37
2023/08/03 21:48:07;;;;;;;5.00;2.10;;;;;;;;;;108001;1274;41121;-37
2023/08/03 21:50:42;;;;;;;4.70;2.10;;;;;;;;;;108032;1260;38933;-38
2023/08/03 21:53:16;;;;;;;4.90;2.10;;;;;;;;;;108070;1272;40118;-38
2023/08/03 21:55:50;;;;;;;4.90;1.90;;;;;;;;;;108024;1263;40872;-37
2023/08/03 21:58:23;;;;;;;6.10;2.30;;;;;;;;;;108068;1264;39869;-36
2023/08/03 22:00:59;;;;;;;5.90;2.10;;;;;;;;;;107955;1259;38744;-36
2023/08/03 22:03:34;;;;;;;6.60;2.30;;;;;;;;;;108060;1272;48118;-35
2023/08/03 22:06:09;;;;;;;4.90;2.10;;;;;;;;;;108077;1263;40619;-35
2023/08/03 22:08:42;;;;;;;6.90;2.40;;;;;;;;;;108053;1276;39999;-35
2023/08/03 22:11:20;;;;;;;5.20;2.40;;;;;;;;;;107739;1275;175492;-35
2023/08/03 22:13:59;;;;;;;4.50;2.20;;;;;;;;;;108060;1263;48454;-36
2023/08/03 22:16:33;;;;;;;5.00;2.00;;;;;;;;;;108008;1272;40375;-37
2023/08/03 22:19:09;;;;;;;4.80;2.10;;;;;;;;;;108077;1275;39512;-39
2023/08/03 22:21:50;;;;;;;4.10;2.00;;;;;;;;;;108070;1268;39752;-40
2023/08/03 22:24:24;;;;;;;5.60;2.20;;;;;;;;;;108101;1276;45815;-40
2023/08/03 22:26:58;;;;;;;5.60;2.30;;;;;;;;;;108095;1273;40778;-40
2023/08/03 22:29:32;;;;;;;6.20;2.50;;;;;;;;;;108131;1263;40026;-40
2023/08/03 22:32:07;;;;;;;5.00;2.10;;;;;;;;;;108111;1260;38819;-40
2023/08/03 22:34:40;;;;;;;4.60;2.00;;;;;;;;;;108108;1263;48452;-38
2023/08/03 22:37:14;;;;;;;4.30;2.00;;;;;;;;;;108092;1272;40447;-38
2023/08/03 22:39:47;;;;;;;4.20;2.00;;;;;;;;;;108106;1273;39945;-39
2023/08/03 22:42:21;;;;;;;4.40;1.90;;;;;;;;;;108104;1270;38870;-39
2023/08/03 22:44:55;;;;;;;7.10;2.10;;;;;;;;;;108128;1274;46533;-39
2023/08/03 22:47:28;;;;;;;4.90;2.20;;;;;;;;;;108125;1260;40537;-40
2023/08/03 22:50:10;;;;;;;4.60;2.20;;;;;;;;;;108111;1272;39730;-40
2023/08/03 22:52:44;;;;;;;5.10;2.20;;;;;;;;;;108054;1269;39805;-40
2023/08/03 22:55:18;;;;;;;4.40;1.90;;;;;;;;;;108106;1263;39876;-40
2023/08/03 22:57:51;;;;;;;4.40;1.80;;;;;;;;;;108099;1272;40469;-39
2023/08/03 23:00:26;;;;;;;4.80;1.90;;;;;;;;;;108113;1272;39764;-39
2023/08/03 23:02:59;;;;;;;4.20;2.00;;;;;;;;;;107975;1260;38655;-39
2023/08/03 23:05:36;;;;;;;4.50;1.90;;;;;;;;;;108016;1275;39831;-40
2023/08/03 23:08:10;;;;;;;4.40;2.00;;;;;;;;;;108020;1275;40435;-40
2023/08/03 23:10:44;;;;;;;4.10;1.90;;;;;;;;;;108044;1272;39648;-39
2023/08/03 23:13:17;;;;;;;4.20;1.70;;;;;;;;;;107944;1260;38718;-39
2023/08/03 23:15:56;;;;;;;3.70;1.70;;;;;;;;;;108012;1266;39953;-39
2023/08/03 23:18:31;;;;;;;4.50;2.00;;;;;;;;;;107999;1272;40771;-39
2023/08/03 23:21:06;;;;;;;4.40;1.80;;;;;;;;;;108004;1272;39780;-38
2023/08/03 23:23:39;;;;;;;5.20;1.90;;;;;;;;;;107979;1260;38900;-39
2023/08/03 23:26:16;;;;;;;4.70;1.80;;;;;;;;;;107996;1273;40037;-39
2023/08/03 23:28:50;;;;;;;4.80;1.90;;;;;;;;;;108031;1275;40435;-38
2023/08/03 23:31:23;;;;;;;3.80;1.90;;;;;;;;;;108080;1261;41190;-38
2023/08/03 23:33:59;;;;;;;4.30;1.80;;;;;;;;;;108034;1260;38505;-39
2023/08/03 23:36:32;;;;;;;4.30;2.00;;;;;;;;;;108103;1263;39793;-39
2023/08/03 23:39:06;;;;;;;3.90;1.80;;;;;;;;;;108099;1267;40455;-43
2023/08/03 23:41:42;;;;;;;4.50;1.80;;;;;;;;;;108109;1261;40968;-40
2023/08/03 23:44:17;;;;;;;4.60;1.90;;;;;;;;;;108073;1259;38417;-39
2023/08/03 23:46:51;;;;;;;4.20;1.90;;;;;;;;;;108095;1272;41045;-39
2023/08/03 23:49:24;;;;;;;4.60;1.70;;;;;;;;;;108054;1271;40254;-39
2023/08/03 23:51:58;;;;;;;4.30;1.70;;;;;;;;;;108083;1260;39557;-39
2023/08/03 23:54:31;;;;;;;4.90;2.00;;;;;;;;;;108065;1260;38647;-38
2023/08/03 23:57:05;;;;;;;4.50;1.90;;;;;;;;;;108086;1271;39987;-38
2023/08/03 23:59:40;;;;;;;3.80;1.70;;;;;;;;;;107990;1263;175514;-39
